createdAt,value
2018-12-01T00:00:31.754Z,5.70
2018-12-01T00:03:01.270Z,5.63
2018-12-01T00:05:30.118Z,5.47
2018-12-01T00:07:59.017Z,5.87
2018-12-01T00:10:34.106Z,5.60
2018-12-01T00:13:03.131Z,5.50
2018-12-01T00:15:31.992Z,5.80
2018-12-01T00:18:00.892Z,5.40
2018-12-01T00:20:32.507Z,5.13
2018-12-01T00:23:01.417Z,5.07
2018-12-01T00:25:30.365Z,4.93
2018-12-01T00:27:59.287Z,5.10
2018-12-01T00:30:28.404Z,5.10
2018-12-01T00:32:58.138Z,5.60
2018-12-01T00:35:27.143Z,5.70
2018-12-01T00:40:34.679Z,5.10
2018-12-01T00:43:03.223Z,5.27
2018-12-01T00:45:31.734Z,5.87
2018-12-01T00:48:00.236Z,4.93
2018-12-01T00:50:28.761Z,5.60
2018-12-01T00:52:57.280Z,6.13
2018-12-01T00:55:25.799Z,5.47
2018-12-01T00:57:54.279Z,5.07
2018-12-01T01:00:24.557Z,6.07
2018-12-01T01:02:54.732Z,5.80
2018-12-01T01:05:24.130Z,5.47
2018-12-01T01:07:52.918Z,5.90
2018-12-01T01:10:26.771Z,4.90
2018-12-01T01:12:55.258Z,5.03
2018-12-01T01:15:23.894Z,5.30
2018-12-01T01:17:52.407Z,5.87
2018-12-01T01:20:22.863Z,5.17
2018-12-01T01:22:51.563Z,5.33
2018-12-01T01:25:20.133Z,4.13
2018-12-01T01:27:48.923Z,4.60
2018-12-01T01:30:19.926Z,6.93
2018-12-01T01:32:48.965Z,5.37
2018-12-01T01:35:17.519Z,5.97
2018-12-01T01:37:46.023Z,4.83
2018-12-01T01:40:16.414Z,5.60
2018-12-01T01:42:45.015Z,4.90
2018-12-01T01:45:16.364Z,5.23
2018-12-01T01:47:44.969Z,4.67
2018-12-01T01:50:27.818Z,4.60
2018-12-01T01:52:56.465Z,5.43
2018-12-01T01:55:25.030Z,4.50
2018-12-01T01:57:53.909Z,4.50
2018-12-01T02:00:23.563Z,5.23
2018-12-01T02:02:52.522Z,4.37
2018-12-01T02:05:22.836Z,5.00
2018-12-01T02:07:51.358Z,4.83
2018-12-01T02:10:20.873Z,4.90
2018-12-01T02:12:49.389Z,4.30
2018-12-01T02:15:18.229Z,3.97
2018-12-01T02:17:46.877Z,4.60
2018-12-01T02:20:17.330Z,4.60
2018-12-01T02:22:46.102Z,3.87
2018-12-01T02:25:15.786Z,4.90
2018-12-01T02:27:44.446Z,3.73
2018-12-01T02:30:15.948Z,3.87
2018-12-01T02:32:44.713Z,4.47
2018-12-01T02:35:21.298Z,5.03
2018-12-01T02:37:49.866Z,4.17
2018-12-01T02:40:18.383Z,4.83
2018-12-01T02:42:46.879Z,4.50
2018-12-01T02:45:26.585Z,3.83
2018-12-01T02:47:55.195Z,4.43
2018-12-01T02:50:26.529Z,5.17
2018-12-01T02:52:56.227Z,4.77
2018-12-01T02:55:24.844Z,5.00
2018-12-01T02:57:53.397Z,4.60
2018-12-01T03:00:22.071Z,5.30
2018-12-01T03:02:50.668Z,4.43
2018-12-01T03:05:19.230Z,5.47
2018-12-01T03:07:47.821Z,4.63
2018-12-01T03:10:17.743Z,4.73
2018-12-01T03:12:46.228Z,4.67
2018-12-01T03:15:17.499Z,4.83
2018-12-01T03:17:46.251Z,4.60
2018-12-01T03:20:15.762Z,4.83
2018-12-01T03:22:44.352Z,4.90
2018-12-01T03:25:19.280Z,5.20
2018-12-01T03:27:49.149Z,4.63
2018-12-01T03:30:19.624Z,5.60
2018-12-01T03:32:48.975Z,5.73
2018-12-01T03:35:18.252Z,4.27
2018-12-01T03:37:47.910Z,4.40
2018-12-01T03:40:17.434Z,5.27
2018-12-01T03:42:46.486Z,4.43
2018-12-01T03:45:20.849Z,5.40
2018-12-01T03:47:49.414Z,5.37
2018-12-01T03:50:20.378Z,5.77
2018-12-01T03:52:49.946Z,5.17
2018-12-01T03:55:30.480Z,6.10
2018-12-01T03:57:59.274Z,5.47
2018-12-01T04:00:31.603Z,5.70
2018-12-01T04:03:00.886Z,5.63
2018-12-01T04:05:29.570Z,5.40
2018-12-01T04:07:58.288Z,5.43
2018-12-01T04:10:26.858Z,5.43
2018-12-01T04:12:55.841Z,5.80
2018-12-01T04:15:24.576Z,5.50
2018-12-01T04:17:53.116Z,5.80
2018-12-01T04:20:21.790Z,4.73
2018-12-01T04:22:50.371Z,4.83
2018-12-01T04:25:19.021Z,5.40
2018-12-01T04:27:47.537Z,5.50
2018-12-01T04:30:18.302Z,5.17
2018-12-01T04:32:46.823Z,5.70
2018-12-01T04:35:16.823Z,5.87
2018-12-01T04:37:45.966Z,5.40
2018-12-01T04:40:14.796Z,5.17
2018-12-01T04:45:12.714Z,5.50
2018-12-01T04:47:41.397Z,4.83
2018-12-01T04:50:13.228Z,5.23
2018-12-01T04:52:42.275Z,5.47
2018-12-01T04:55:14.626Z,5.60
2018-12-01T04:57:43.423Z,5.27
2018-12-01T05:00:19.860Z,5.23
2018-12-01T05:02:48.582Z,5.23
2018-12-01T05:05:19.320Z,5.47
2018-12-01T05:07:48.522Z,5.33
2018-12-01T05:10:18.155Z,4.83
2018-12-01T05:12:47.165Z,5.53
2018-12-01T05:15:17.908Z,5.97
2018-12-01T05:17:46.973Z,5.50
2018-12-01T05:20:18.847Z,5.50
2018-12-01T05:22:47.835Z,5.17
2018-12-01T05:25:17.529Z,5.13
2018-12-01T05:27:46.452Z,6.37
2018-12-01T05:30:15.321Z,5.67
2018-12-01T05:32:44.157Z,5.43
2018-12-01T05:35:15.016Z,5.77
2018-12-01T05:37:43.915Z,5.50
2018-12-01T05:40:13.447Z,5.23
2018-12-01T05:42:42.233Z,5.63
2018-12-01T05:45:15.313Z,6.17
2018-12-01T05:47:44.085Z,5.10
2018-12-01T05:50:13.759Z,5.33
2018-12-01T05:52:42.521Z,6.20
2018-12-01T05:55:12.203Z,5.67
2018-12-01T05:57:40.981Z,5.40
2018-12-01T06:00:12.477Z,5.13
2018-12-01T06:02:41.240Z,5.43
2018-12-01T06:05:10.890Z,5.13
2018-12-01T06:07:40.797Z,5.93
2018-12-01T06:10:13.425Z,5.87
2018-12-01T06:12:42.486Z,5.27
2018-12-01T06:15:12.302Z,6.53
2018-12-01T06:17:41.002Z,5.80
2018-12-01T06:20:11.839Z,6.33
2018-12-01T06:22:40.667Z,7.23
2018-12-01T06:25:17.079Z,6.60
2018-12-01T06:27:45.559Z,6.23
2018-12-01T06:30:17.115Z,6.03
2018-12-01T06:32:46.159Z,6.43
2018-12-01T06:35:14.698Z,6.83
2018-12-01T06:37:43.190Z,6.53
2018-12-01T06:40:12.857Z,6.07
2018-12-01T06:42:41.357Z,5.53
2018-12-01T06:45:12.704Z,6.13
2018-12-01T06:47:41.208Z,5.93
2018-12-01T06:50:14.122Z,5.77
2018-12-01T06:52:42.647Z,5.70
2018-12-01T06:55:15.097Z,5.93
2018-12-01T06:57:44.794Z,6.53
2018-12-01T07:00:14.286Z,6.50
2018-12-01T07:02:43.296Z,6.20
2018-12-01T07:05:12.798Z,6.10
2018-12-01T07:07:41.285Z,6.50
2018-12-01T07:10:13.592Z,5.63
2018-12-01T07:12:43.499Z,5.83
2018-12-01T07:15:14.880Z,6.53
2018-12-01T07:17:43.394Z,6.03
2018-12-01T07:20:11.876Z,6.07
2018-12-01T07:22:40.378Z,5.57
2018-12-01T07:25:08.836Z,5.57
2018-12-01T07:27:37.482Z,6.80
2018-12-01T07:30:13.291Z,6.53
2018-12-01T07:32:42.284Z,6.63
2018-12-01T07:35:10.802Z,6.13
2018-12-01T07:37:39.576Z,5.63
2018-12-01T07:40:16.339Z,6.33
2018-12-01T07:42:44.799Z,6.83
2018-12-01T07:45:14.920Z,5.57
2018-12-01T07:47:43.476Z,5.70
2018-12-01T07:50:14.264Z,5.17
2018-12-01T07:52:44.244Z,5.73
2018-12-01T07:55:12.819Z,6.00
2018-12-01T07:57:41.331Z,6.03
2018-12-01T08:00:11.896Z,6.30
2018-12-01T08:02:40.663Z,6.67
2018-12-01T08:05:10.154Z,5.83
2018-12-01T08:07:38.606Z,5.90
2018-12-01T08:10:09.982Z,5.97
2018-12-01T08:12:39.109Z,5.83
2018-12-01T08:15:12.042Z,6.87
2018-12-01T08:17:40.585Z,6.83
2018-12-01T08:20:10.339Z,7.50
2018-12-01T08:22:38.826Z,5.83
2018-12-01T08:25:15.826Z,5.80
2018-12-01T08:27:44.596Z,5.27
2018-12-01T08:30:16.544Z,5.43
2018-12-01T08:32:45.023Z,7.97
2018-12-01T08:35:13.492Z,5.90
2018-12-01T08:37:41.900Z,5.97
2018-12-01T08:40:12.785Z,5.40
2018-12-01T08:42:41.209Z,6.00
2018-12-01T08:45:10.770Z,5.50
2018-12-01T08:47:39.855Z,4.97
2018-12-01T08:50:09.991Z,5.77
2018-12-01T08:52:38.706Z,5.97
2018-12-01T08:55:08.895Z,5.80
2018-12-01T08:57:37.465Z,5.37
2018-12-01T09:00:14.907Z,6.87
2018-12-01T09:02:43.656Z,6.10
2018-12-01T09:05:12.107Z,6.03
2018-12-01T09:07:40.568Z,6.77
2018-12-01T09:10:09.911Z,5.60
2018-12-01T09:12:38.349Z,5.63
2018-12-01T09:15:10.836Z,6.20
2018-12-01T09:17:39.590Z,5.33
2018-12-01T09:20:11.029Z,5.77
2018-12-01T09:22:40.767Z,6.07
2018-12-01T09:25:11.587Z,6.33
2018-12-01T09:27:40.060Z,6.30
2018-12-01T09:30:12.102Z,6.30
2018-12-01T09:32:40.722Z,6.30
2018-12-01T09:35:09.226Z,6.60
2018-12-01T09:37:37.692Z,7.70
2018-12-01T09:40:08.933Z,6.30
2018-12-01T09:42:37.751Z,7.67
2018-12-01T09:45:09.231Z,7.07
2018-12-01T09:47:37.986Z,6.93
2018-12-01T09:50:11.695Z,6.37
2018-12-01T09:52:40.191Z,6.60
2018-12-01T09:55:09.913Z,7.13
2018-12-01T09:57:38.627Z,6.27
2018-12-01T10:00:16.095Z,7.30
2018-12-01T10:02:45.106Z,6.53
2018-12-01T10:05:16.644Z,6.70
2018-12-01T10:07:45.115Z,6.80
2018-12-01T10:10:14.761Z,7.10
2018-12-01T10:12:43.306Z,7.80
2018-12-01T10:15:14.003Z,8.17
2018-12-01T10:17:42.473Z,6.93
2018-12-01T10:20:12.363Z,7.00
2018-12-01T10:22:40.835Z,7.03
2018-12-01T10:25:10.734Z,8.00
2018-12-01T10:27:40.179Z,7.47
2018-12-01T10:30:15.523Z,7.60
2018-12-01T10:32:43.985Z,7.73
2018-12-01T10:35:13.534Z,6.63
2018-12-01T10:37:42.055Z,6.63
2018-12-01T10:40:11.604Z,6.63
2018-12-01T10:42:40.246Z,5.97
2018-12-01T10:45:12.638Z,5.63
2018-12-01T10:47:41.282Z,6.27
2018-12-01T10:50:12.971Z,5.60
2018-12-01T10:52:41.495Z,5.83
2018-12-01T10:55:11.743Z,5.17
2018-12-01T10:57:40.307Z,5.13
2018-12-01T11:00:15.677Z,4.63
2018-12-01T11:02:49.359Z,4.20
2018-12-01T11:05:17.878Z,3.83
2018-12-01T11:07:46.331Z,3.40
2018-12-01T11:10:14.811Z,3.77
2018-12-01T11:12:43.305Z,5.17
2018-12-01T11:15:11.777Z,3.90
2018-12-01T11:17:40.235Z,3.80
2018-12-01T11:20:10.748Z,4.00
2018-12-01T11:22:39.326Z,3.57
2018-12-01T11:25:13.590Z,3.70
2018-12-01T11:27:42.139Z,3.67
2018-12-01T11:30:14.004Z,3.10
2018-12-01T11:32:42.533Z,3.30
2018-12-01T11:35:11.087Z,3.63
2018-12-01T11:37:39.579Z,3.03
2018-12-01T11:40:13.395Z,3.00
2018-12-01T11:42:41.860Z,2.87
2018-12-01T11:45:13.340Z,3.33
2018-12-01T11:47:41.906Z,2.50
2018-12-01T11:50:18.151Z,2.67
2018-12-01T11:52:47.567Z,3.37
2018-12-01T11:55:23.566Z,2.90
2018-12-01T11:57:52.748Z,2.27
2018-12-01T12:00:23.436Z,2.33
2018-12-01T12:02:52.104Z,2.60
2018-12-01T12:05:20.666Z,2.30
2018-12-01T12:08:00.400Z,2.77
2018-12-01T12:10:28.994Z,2.30
2018-12-01T12:12:57.470Z,2.70
2018-12-01T12:15:26.616Z,2.70
2018-12-01T12:17:56.870Z,2.53
2018-12-01T12:20:25.286Z,2.30
2018-12-01T12:22:53.819Z,2.50
2018-12-01T12:25:22.296Z,2.87
2018-12-01T12:27:50.785Z,2.40
2018-12-01T12:30:23.398Z,2.20
2018-12-01T12:32:48.667Z,2.50
2018-12-01T12:35:17.851Z,2.57
2018-12-01T12:37:46.325Z,2.30
2018-12-01T12:40:19.198Z,2.37
2018-12-01T12:42:47.957Z,2.43
2018-12-01T12:45:16.465Z,1.90
2018-12-01T12:47:44.943Z,2.40
2018-12-01T12:50:16.175Z,1.97
2018-12-01T12:52:45.699Z,2.20
2018-12-01T12:55:15.122Z,2.30
2018-12-01T12:57:43.586Z,2.10
2018-12-01T13:00:13.062Z,2.33
2018-12-01T13:02:43.375Z,2.23
2018-12-01T13:05:13.385Z,2.00
2018-12-01T13:07:41.920Z,1.73
2018-12-01T13:10:13.583Z,2.00
2018-12-01T13:12:42.090Z,2.07
2018-12-01T13:15:11.655Z,1.90
2018-12-01T13:17:40.247Z,2.10
2018-12-01T13:20:16.428Z,2.13
2018-12-01T13:22:45.555Z,2.10
2018-12-01T13:25:14.863Z,2.10
2018-12-01T13:27:45.150Z,1.80
2018-12-01T13:30:15.862Z,1.90
2018-12-01T13:32:44.367Z,1.80
2018-12-01T13:35:12.835Z,1.80
2018-12-01T13:37:41.386Z,2.03
2018-12-01T13:40:11.583Z,2.10
2018-12-01T13:42:40.056Z,1.77
2018-12-01T13:45:13.323Z,2.43
2018-12-01T13:47:41.817Z,1.60
2018-12-01T13:50:15.171Z,2.00
2018-12-01T13:52:45.147Z,2.00
2018-12-01T13:55:13.658Z,2.43
2018-12-01T13:57:42.170Z,2.33
2018-12-01T14:00:13.284Z,2.07
2018-12-01T14:02:41.747Z,1.87
2018-12-01T14:05:11.775Z,1.70
2018-12-01T14:07:40.288Z,2.10
2018-12-01T14:10:18.331Z,2.07
2018-12-01T14:12:48.125Z,2.60
2018-12-01T14:15:17.519Z,1.97
2018-12-01T14:17:46.675Z,2.37
2018-12-01T14:20:15.840Z,2.40
2018-12-01T14:22:44.969Z,2.70
2018-12-01T14:25:14.165Z,2.37
2018-12-01T14:27:43.923Z,2.60
2018-12-01T14:30:14.290Z,2.63
2018-12-01T14:32:42.840Z,2.37
2018-12-01T14:35:28.655Z,2.10
2018-12-01T14:37:59.686Z,2.30
2018-12-01T14:40:28.203Z,2.10
2018-12-01T14:42:56.629Z,2.77
2018-12-01T14:45:25.093Z,2.47
2018-12-01T14:47:53.543Z,2.20
2018-12-01T14:50:22.135Z,2.47
2018-12-01T14:52:50.646Z,3.23
2018-12-01T14:55:19.112Z,3.50
2018-12-01T14:57:47.809Z,2.67
2018-12-01T15:00:18.431Z,2.60
2018-12-01T15:02:47.209Z,3.57
2018-12-01T15:05:15.719Z,2.50
2018-12-01T15:07:44.423Z,6.90
2018-12-01T15:10:15.639Z,7.70
2018-12-01T15:12:44.113Z,2.50
2018-12-01T15:15:14.130Z,2.10
2018-12-01T15:17:42.790Z,1.83
2018-12-01T15:20:15.139Z,2.40
2018-12-01T15:22:44.399Z,2.00
2018-12-01T15:25:15.990Z,2.97
2018-12-01T15:27:44.645Z,2.33
2018-12-01T15:30:15.159Z,2.20
2018-12-01T15:32:44.957Z,2.33
2018-12-01T15:35:14.378Z,1.97
2018-12-01T15:37:46.574Z,2.60
2018-12-01T15:40:16.999Z,2.50
2018-12-01T15:42:45.485Z,2.30
2018-12-01T15:45:15.250Z,2.20
2018-12-01T15:47:43.783Z,2.90
2018-12-01T15:50:14.571Z,2.37
2018-12-01T15:52:43.975Z,2.80
2018-12-01T15:55:12.791Z,2.73
2018-12-01T15:57:41.275Z,2.80
2018-12-01T16:00:12.701Z,2.90
2018-12-01T16:02:41.279Z,3.37
2018-12-01T16:05:10.523Z,3.23
2018-12-01T16:07:39.087Z,4.43
2018-12-01T16:10:09.233Z,4.00
2018-12-01T16:12:37.704Z,3.23
2018-12-01T16:15:12.751Z,3.70
2018-12-01T16:17:41.370Z,3.87
2018-12-01T16:20:13.939Z,4.63
2018-12-01T16:22:42.452Z,2.87
2018-12-01T16:25:14.836Z,3.27
2018-12-01T16:27:44.177Z,3.30
2018-12-01T16:30:15.474Z,3.50
2018-12-01T16:32:43.976Z,3.57
2018-12-01T16:35:12.430Z,3.70
2018-12-01T16:37:40.928Z,3.97
2018-12-01T16:40:12.971Z,3.80
2018-12-01T16:42:41.445Z,4.20
2018-12-01T16:45:12.863Z,3.20
2018-12-01T16:47:41.514Z,6.00
2018-12-01T16:50:15.114Z,3.90
2018-12-01T16:52:44.773Z,3.57
2018-12-01T16:55:14.509Z,2.93
2018-12-01T16:57:43.120Z,2.97
2018-12-01T17:00:13.072Z,2.90
2018-12-01T17:02:41.611Z,2.70
2018-12-01T17:05:11.608Z,3.30
2018-12-01T17:07:40.073Z,3.30
2018-12-01T17:10:18.420Z,3.40
2018-12-01T17:12:48.163Z,3.40
2018-12-01T17:15:19.810Z,4.80
2018-12-01T17:17:48.354Z,3.00
2018-12-01T17:20:17.303Z,3.77
2018-12-01T17:23:01.368Z,4.03
2018-12-01T17:25:29.871Z,4.10
2018-12-01T17:27:59.440Z,3.60
2018-12-01T17:30:29.325Z,3.07
2018-12-01T17:32:58.730Z,3.43
2018-12-01T17:35:30.375Z,3.50
2018-12-01T17:38:01.076Z,3.10
2018-12-01T17:40:35.413Z,2.63
2018-12-01T17:43:04.321Z,4.20
2018-12-01T17:45:32.789Z,3.63
2018-12-01T17:48:01.256Z,3.57
2018-12-01T17:50:29.745Z,3.50
2018-12-01T17:52:58.210Z,3.47
2018-12-01T17:55:28.236Z,3.87
2018-12-01T17:57:56.709Z,3.30
2018-12-01T18:00:26.739Z,3.70
2018-12-01T18:03:00.720Z,3.03
2018-12-01T18:05:33.127Z,3.83
2018-12-01T18:08:01.736Z,4.33
2018-12-01T18:10:30.838Z,3.80
2018-12-01T18:12:59.287Z,3.30
2018-12-01T18:15:27.710Z,3.53
2018-12-01T18:17:56.199Z,3.70
2018-12-01T18:20:24.719Z,3.47
2018-12-01T18:22:58.185Z,3.37
2018-12-01T18:25:31.385Z,6.47
2018-12-01T18:27:59.852Z,3.63
2018-12-01T18:30:31.670Z,2.70
2018-12-01T18:33:06.562Z,3.27
2018-12-01T18:35:34.998Z,3.57
2018-12-01T18:38:03.446Z,2.97
2018-12-01T18:40:31.900Z,2.77
2018-12-01T18:43:00.384Z,5.83
2018-12-01T18:45:28.843Z,3.10
2018-12-01T18:47:57.321Z,2.93
2018-12-01T18:50:25.759Z,2.90
2018-12-01T18:53:02.343Z,2.83
2018-12-01T18:55:33.077Z,3.20
2018-12-01T18:58:01.516Z,3.43
2018-12-01T19:00:32.262Z,3.27
2018-12-01T19:03:00.742Z,3.13
2018-12-01T19:05:29.204Z,2.60
2018-12-01T19:07:57.800Z,2.97
2018-12-01T19:10:26.281Z,2.80
2018-12-01T19:12:54.831Z,2.77
2018-12-01T19:15:23.290Z,2.70
2018-12-01T19:17:52.185Z,3.63
2018-12-01T19:20:20.667Z,2.60
2018-12-01T19:22:49.637Z,2.83
2018-12-01T19:25:20.112Z,2.97
2018-12-01T19:27:48.965Z,2.70
2018-12-01T19:30:18.358Z,3.30
2018-12-01T19:32:53.271Z,2.73
2018-12-01T19:35:21.755Z,3.00
2018-12-01T19:37:51.424Z,3.03
2018-12-01T19:40:29.763Z,3.87
2018-12-01T19:42:59.105Z,2.90
2018-12-01T19:45:27.693Z,3.00
2018-12-01T19:47:56.201Z,3.63
2018-12-01T19:50:36.776Z,3.17
2018-12-01T19:53:07.145Z,3.10
2018-12-01T19:55:35.742Z,2.80
2018-12-01T19:58:13.547Z,2.47
2018-12-01T20:00:43.204Z,2.40
2018-12-01T20:03:14.365Z,2.60
2018-12-01T20:05:42.853Z,2.90
2018-12-01T20:08:11.514Z,2.80
2018-12-01T20:10:43.948Z,2.87
2018-12-01T20:13:18.059Z,2.70
2018-12-01T20:15:48.202Z,3.57
2018-12-01T20:18:19.340Z,2.93
2018-12-01T20:20:47.867Z,2.60
2018-12-01T20:23:16.314Z,3.33
2018-12-01T20:25:49.304Z,2.60
2018-12-01T20:28:17.802Z,2.80
2018-12-01T20:30:46.983Z,2.90
2018-12-01T20:33:15.804Z,2.77
2018-12-01T20:35:54.238Z,3.27
2018-12-01T20:38:29.799Z,2.60
2018-12-01T20:40:58.308Z,2.80
2018-12-01T20:43:26.790Z,2.63
2018-12-01T20:45:55.242Z,2.70
2018-12-01T20:48:23.783Z,3.70
2018-12-01T20:50:52.193Z,2.50
2018-12-01T20:53:21.026Z,3.10
2018-12-01T20:55:52.904Z,2.60
2018-12-01T20:58:29.435Z,2.53
2018-12-01T21:00:57.903Z,2.47
2018-12-01T21:03:26.343Z,2.60
2018-12-01T21:05:54.803Z,2.63
2018-12-01T21:08:27.869Z,2.80
2018-12-01T21:10:55.118Z,2.67
2018-12-01T21:13:23.587Z,2.83
2018-12-01T21:15:52.070Z,2.50
2018-12-01T21:18:20.513Z,2.40
2018-12-01T21:20:49.003Z,2.77
2018-12-01T21:23:17.464Z,2.73
2018-12-01T21:25:45.963Z,2.23
2018-12-01T21:28:14.878Z,2.23
2018-12-01T21:30:44.285Z,2.27
2018-12-01T21:33:18.065Z,2.27
2018-12-01T21:35:46.541Z,2.10
2018-12-01T21:38:15.606Z,2.00
2018-12-01T21:40:44.351Z,2.63
2018-12-01T21:43:13.080Z,2.30
2018-12-01T21:45:41.538Z,2.20
2018-12-01T21:48:11.438Z,2.30
2018-12-01T21:50:41.907Z,2.30
2018-12-01T21:53:14.943Z,2.20
2018-12-01T21:55:43.402Z,2.90
2018-12-01T21:58:11.867Z,3.00
2018-12-01T22:00:43.468Z,2.40
2018-12-01T22:03:13.224Z,2.53
2018-12-01T22:05:47.254Z,2.37
2018-12-01T22:08:16.446Z,2.80
2018-12-01T22:10:52.650Z,2.60
2018-12-01T22:13:21.118Z,2.30
2018-12-01T22:15:49.713Z,2.47
2018-12-01T22:18:18.340Z,2.20
2018-12-01T22:20:46.852Z,2.33
2018-12-01T22:23:15.369Z,2.30
2018-12-01T22:25:43.970Z,2.10
2018-12-01T22:28:14.511Z,2.17
2018-12-01T22:30:44.786Z,1.97
2018-12-01T22:33:15.774Z,2.50
2018-12-01T22:35:45.846Z,2.37
2018-12-01T22:38:14.391Z,2.10
2018-12-01T22:40:43.532Z,2.10
2018-12-01T22:43:12.082Z,2.30
2018-12-01T22:45:40.557Z,2.47
2018-12-01T22:48:10.763Z,2.47
2018-12-01T22:50:41.027Z,4.40
2018-12-01T22:53:09.545Z,2.80
2018-12-01T22:55:39.027Z,4.73
2018-12-01T22:58:10.702Z,3.17
2018-12-01T23:00:47.247Z,1.90
2018-12-01T23:03:17.410Z,2.40
2018-12-01T23:05:46.084Z,3.20
2018-12-01T23:08:15.998Z,2.23
2018-12-01T23:10:44.587Z,2.00
2018-12-01T23:13:13.173Z,1.73
2018-12-01T23:15:41.638Z,1.93
2018-12-01T23:18:13.260Z,1.90
2018-12-01T23:20:45.930Z,2.10
2018-12-01T23:23:14.506Z,1.90
2018-12-01T23:25:43.001Z,2.10
2018-12-01T23:28:11.500Z,1.97
2018-12-01T23:30:42.288Z,2.30
2018-12-01T23:33:12.347Z,1.70
2018-12-01T23:35:41.151Z,1.73
2018-12-01T23:38:09.651Z,1.57
2018-12-01T23:40:39.543Z,1.67
2018-12-01T23:43:08.647Z,1.60
2018-12-01T23:45:38.822Z,1.37
2018-12-01T23:48:07.296Z,1.30
2018-12-01T23:50:36.093Z,1.80
2018-12-01T23:53:08.242Z,1.60
2018-12-01T23:55:36.821Z,1.90
2018-12-01T23:58:05.358Z,1.70
